Allison, Illinois
Current Conditions -  °F | °C
As of 10:53 PM on Wednesday 22 Oct 2014 (Local Time) from KLWV Reporting Station
Clear Clear  
Wind Chill:   Ceiling: Unl
Heat Index:   Visibility: 10mi
Dew Point:   Wind: 5mph
Humidity: 93%   Direction: 40°NE
Pressure: 30.26"   Gusts: NA
Location:  38.7501°N, 87.6141°W
Report Text: KLWV 230353Z AUTO 04004KT 10SM CLR 07/06 A3026 RMK AO2 SLP247 T00670056
Loading
Personal Weather Stations






























Interactive Weather Map
Tropical Storm Tracking
New forecast layout! Learn more

10-Day Weather Forecast

Advertisements
Track Severe Weather on mobile